CMA CGM Columba — 2DBC9 — position and weather

sailwx.info

Track history (hours):
 
Tides and Currents Weather Stations Pressure Air Temp Water Temp Dewpoint Dewpoint Depression Visibility Wind Speed Wind Dir Waves Ship Positions

CMA CGM Columba

Last reported at 2015-Jan-26 19:34 UTC. Time now 2015-Jan-26 20:29 UTC.
Position N 51°24' E 002°45'.

Length 363 m; draft 13.9 m.

Type: Ship (hazmat cat A). MMSI: 235077448.

Date/timePositionNaut miles runAvg speedWind from/ knotsBaromVisibWave heightAir tempDewpointWater temp
2015-Jan-26 19:34N 51°24' E 002°45'1212.4
2015-Jan-26 18:34N 51°24' E 003°05'6 5.9
2015-Jan-26 17:34N 51°21' E 003°12'0 0.4
2015-Jan-26 16:33N 51°20' E 003°12'0 0.0
2015-Jan-26 15:33N 51°20' E 003°12'0 0.0
2015-Jan-26 14:33N 51°20' E 003°12'0 0.0
2015-Jan-26 13:33N 51°20' E 003°12'0 0.0
2015-Jan-26 12:33N 51°20' E 003°12'0 0.0
2015-Jan-26 11:33N 51°20' E 003°12'0 0.0
2015-Jan-26 10:33N 51°20' E 003°12'0 0.0
2015-Jan-26 09:30N 51°20' E 003°12'0 0.0
2015-Jan-26 08:33N 51°20' E 003°12'0 0.0
2015-Jan-26 07:33N 51°20' E 003°12'0 0.0
2015-Jan-26 06:27N 51°20' E 003°12'0 0.0
2015-Jan-26 05:33N 51°20' E 003°12'0 0.0
2015-Jan-26 04:33N 51°20' E 003°12'0 0.0
2015-Jan-26 03:30N 51°20' E 003°12'0 0.0
2015-Jan-26 02:33N 51°20' E 003°12'0 0.0
2015-Jan-26 01:33N 51°20' E 003°12'0 0.0
2015-Jan-26 00:33N 51°20' E 003°12'0 0.0
2015-Jan-25 23:33N 51°20' E 003°12'0 0.4
2015-Jan-25 22:33N 51°21' E 003°12'8 7.3
2015-Jan-25 21:31N 51°25' E 003°02'1111.9
2015-Jan-25 20:33N 51°35' E 003°11'1818.3
2015-Jan-25 19:33N 51°52' E 003°19'1514.8
2015-Jan-25 18:34N 52°03' E 003°35'1212.4
2015-Jan-25 17:33N 52°03' E 003°56'8 7.9
2015-Jan-25 16:33N 51°57' E 004°05'1 0.6
2015-Jan-25 15:31N 51°57' E 004°04'0 0.0
2015-Jan-25 14:28N 51°57' E 004°04'0 0.0
2015-Jan-25 13:31N 51°57' E 004°04'0 0.0
2015-Jan-25 12:31N 51°57' E 004°04'0 0.0
2015-Jan-25 11:31N 51°57' E 004°04'0 0.0
2015-Jan-25 10:31N 51°57' E 004°04'0 0.0
2015-Jan-25 09:31N 51°57' E 004°04'0 0.0
2015-Jan-25 08:31N 51°57' E 004°04'0 0.0
2015-Jan-25 07:31N 51°57' E 004°04'0 0.0
2015-Jan-25 06:31N 51°57' E 004°04'0 0.0
2015-Jan-25 05:31N 51°57' E 004°04'0 0.0
2015-Jan-25 04:31N 51°57' E 004°04'0 0.0
2015-Jan-25 03:28N 51°57' E 004°04'0 0.0
2015-Jan-25 02:31N 51°57' E 004°04'0 0.0
2015-Jan-25 01:31N 51°57' E 004°04'0 0.0
2015-Jan-25 00:31N 51°57' E 004°04'0 0.0
2015-Jan-24 23:31N 51°57' E 004°04'0 0.0
2015-Jan-24 22:31N 51°57' E 004°04'0 0.2
2015-Jan-24 21:33N 51°57' E 004°04'3 3.0
2015-Jan-24 20:33N 51°60' E 004°02'8 7.8
2015-Jan-24 19:33N 51°60' E 003°49'8 8.2
2015-Jan-24 18:33N 52°08' E 003°46'1515.1
2015-Jan-24 17:33N 52°23' E 003°49'1615.9
2015-Jan-24 16:33N 52°39' E 003°53'1717.0
2015-Jan-24 15:33N 52°55' E 003°59'1918.7
2015-Jan-24 14:33N 53°09' E 004°21'2120.9
2015-Jan-24 13:33N 53°27' E 004°37'2020.2
2015-Jan-24 12:33N 53°36' E 005°08'2019.6
2015-Jan-24 11:33N 53°42' E 005°39'1919.1
2015-Jan-24 10:32N 53°48' E 006°11'1818.6
2015-Jan-24 09:33N 53°52' E 006°41'2620.0
2015-Jan-24 08:16N 53°58' E 007°23'913.3
2015-Jan-24 07:34N 53°60' E 007°39'1514.7
2015-Jan-24 06:33N 53°51' E 007°60'1818.0
2015-Jan-24 05:33N 53°40' E 008°23'8 7.2
2015-Jan-24 04:31N 53°35' E 008°32'0 0.0
2015-Jan-24 03:31N 53°35' E 008°32'0 0.0
2015-Jan-24 02:31N 53°35' E 008°32'0 0.0
2015-Jan-24 01:31N 53°35' E 008°32'0 0.0
2015-Jan-24 00:31N 53°35' E 008°32'0 0.0
2015-Jan-23 23:31N 53°35' E 008°32'0 0.0
2015-Jan-23 22:31N 53°35' E 008°32'0 0.0
2015-Jan-23 21:28N 53°35' E 008°32'0 0.0
2015-Jan-23 20:31N 53°35' E 008°32'0 0.0
2015-Jan-23 19:31N 53°35' E 008°32'0 0.0
2015-Jan-23 18:31N 53°35' E 008°32'0 0.0
2015-Jan-23 17:31N 53°35' E 008°32'0 0.0
2015-Jan-23 16:31N 53°35' E 008°32'0 0.0
2015-Jan-23 15:31N 53°35' E 008°32'0 0.0
2015-Jan-23 14:31N 53°35' E 008°32'0 0.0
2015-Jan-23 13:31N 53°35' E 008°32'0 0.0
2015-Jan-23 12:31N 53°35' E 008°32'0 0.0
2015-Jan-23 11:31N 53°35' E 008°32'0 0.0
2015-Jan-23 10:31N 53°35' E 008°32'0 0.0
2015-Jan-23 09:31N 53°35' E 008°32'0 0.0
2015-Jan-23 08:31N 53°35' E 008°32'0 0.0
2015-Jan-23 07:31N 53°35' E 008°32'0 0.0
2015-Jan-23 06:31N 53°35' E 008°32'0 0.0
2015-Jan-23 05:31N 53°35' E 008°32'0 0.0
2015-Jan-23 04:31N 53°35' E 008°32'0 0.0
2015-Jan-23 03:31N 53°35' E 008°32'0 0.0
2015-Jan-23 02:31N 53°35' E 008°32'0 0.0
2015-Jan-23 01:31N 53°35' E 008°32'0 0.0
2015-Jan-23 00:31N 53°35' E 008°32'0 0.0
2015-Jan-22 23:31N 53°35' E 008°32'0 0.0
2015-Jan-22 22:31N 53°35' E 008°32'0 0.0
2015-Jan-22 21:31N 53°35' E 008°32'0 0.0
2015-Jan-22 20:31N 53°35' E 008°32'0 0.0
2015-Jan-22 19:31N 53°35' E 008°32'0 0.0
2015-Jan-22 18:28N 53°35' E 008°32'0 0.0
2015-Jan-22 17:31N 53°35' E 008°32'0 0.0
2015-Jan-22 16:31N 53°35' E 008°32'0 0.0
2015-Jan-22 15:31N 53°35' E 008°32'1 0.6
2015-Jan-22 14:33N 53°35' E 008°31'1312.8
2015-Jan-22 13:33N 53°44' E 008°15'1515.1
2015-Jan-22 12:33N 53°52' E 007°54'9 8.9
2015-Jan-22 11:33N 54°01' E 007°56'6 6.3
2015-Jan-22 10:33N 54°03' E 008°05'1 1.1
2015-Jan-22 09:33N 54°04' E 008°04'1 1.2
2015-Jan-22 08:33N 54°03' E 008°05'1212.2
2015-Jan-22 07:33N 53°59' E 008°24'1514.8
2015-Jan-22 06:33N 53°51' E 008°46'1615.5
2015-Jan-22 05:33N 53°53' E 009°12'1615.8
2015-Jan-22 04:33N 53°41' E 009°30'1111.5
2015-Jan-22 03:33N 53°34' E 009°45'6 6.3
2015-Jan-22 02:33N 53°32' E 009°55'0 0.0
2015-Jan-22 01:33N 53°32' E 009°55'0 0.0
2015-Jan-22 00:33N 53°32' E 009°55'0 0.0
2015-Jan-21 23:33N 53°32' E 009°55'0 0.0
2015-Jan-21 22:48N 53°32' E 009°55'0 0.0
2015-Jan-21 22:45N 53°32' E 009°55'0 0.0
2015-Jan-21 22:33N 53°32' E 009°55'0 0.0
2015-Jan-21 21:33N 53°32' E 009°55'0 0.0
2015-Jan-21 20:33N 53°32' E 009°55'0 0.0
2015-Jan-21 19:33N 53°32' E 009°55'0 0.0
2015-Jan-21 18:33N 53°32' E 009°55'0 0.0
2015-Jan-21 17:27N 53°32' E 009°55'0 0.0
2015-Jan-21 16:33N 53°32' E 009°55'0 0.0
2015-Jan-21 15:30N 53°32' E 009°55'0 0.0
2015-Jan-21 14:33N 53°32' E 009°55'0 0.0
2015-Jan-21 13:33N 53°32' E 009°55'0 0.0
2015-Jan-21 12:33N 53°32' E 009°55'0 0.0
2015-Jan-21 11:30N 53°32' E 009°55'0 0.0
2015-Jan-21 10:31N 53°32' E 009°55'0 0.0
2015-Jan-21 09:28N 53°32' E 009°55'0 0.0
2015-Jan-21 08:31N 53°32' E 009°55'0 0.0
2015-Jan-21 07:31N 53°32' E 009°55'0 0.0
2015-Jan-21 06:28N 53°32' E 009°55'0 0.0
2015-Jan-21 05:31N 53°32' E 009°55'0 0.0
2015-Jan-21 04:31N 53°32' E 009°55'0 0.0
2015-Jan-21 03:28N 53°32' E 009°55'0 0.0
2015-Jan-21 02:31N 53°32' E 009°55'0 0.0
2015-Jan-21 01:31N 53°32' E 009°55'0 0.0
2015-Jan-21 00:31N 53°32' E 009°55'0 0.0
2015-Jan-20 23:28N 53°32' E 009°55'0 0.0
2015-Jan-20 22:31N 53°32' E 009°55'0 0.0
2015-Jan-20 21:31N 53°32' E 009°55'0 0.0
2015-Jan-20 20:28N 53°32' E 009°55'0 0.0
2015-Jan-20 19:31N 53°32' E 009°55'0 0.0
2015-Jan-20 18:31N 53°32' E 009°55'0 0.0
2015-Jan-20 17:33N 53°32' E 009°55'2 2.3
2015-Jan-20 16:33N 53°33' E 009°51'10 9.6
2015-Jan-20 15:33N 53°36' E 009°36'1212.3
2015-Jan-20 14:33N 53°46' E 009°24'1312.6
2015-Jan-20 13:33N 53°53' E 009°06'1414.0
2015-Jan-20 12:34N 53°53' E 008°42'1817.6
2015-Jan-20 11:33N 53°60' E 008°15'1514.6
2015-Jan-20 10:33N 53°57' E 007°50'1312.1
2015-Jan-20 09:27N 53°54' E 007°28'1313.8
2015-Jan-20 08:29N 53°52' E 007°06'2019.8
2015-Jan-20 07:29N 53°47' E 006°33'2123.0
2015-Jan-20 06:34N 53°41' E 005°58'2524.5
2015-Jan-20 05:33N 53°34' E 005°19'2424.4
2015-Jan-20 04:33N 53°23' E 004°42'2725.0
2015-Jan-20 03:29N 52°60' E 004°21'2224.2
2015-Jan-20 02:33N 52°41' E 004°01'2924.6
2015-Jan-20 01:22N 52°20' E 003°27'5024.8
2015-Jan-19 23:21N 51°43' E 002°32'2024.6
2015-Jan-19 22:34N 51°28' E 002°11'2423.9
2015-Jan-19 21:34N 51°11' E 001°46'2423.6
2015-Jan-19 20:34N 50°51' E 001°26'3422.9
2015-Jan-19 19:04N 50°27' E 000°48'1424.7
2015-Jan-19 18:32N 50°22' E 000°28'4120.6
2015-Jan-19 16:33N 49°49' W 000°09'1717.2
2015-Jan-19 15:34N 49°32' W 000°06'1110.5
2015-Jan-19 14:33N 49°28' E 000°09'1 0.6
2015-Jan-19 13:31N 49°28' E 000°10'0 0.0
2015-Jan-19 12:28N 49°28' E 000°10'0 0.0
2015-Jan-19 11:31N 49°28' E 000°10'0 0.0
2015-Jan-19 10:31N 49°28' E 000°10'0 0.0
2015-Jan-19 09:31N 49°28' E 000°10'0 0.0
2015-Jan-19 08:31N 49°28' E 000°10'3 2.9
2015-Jan-19 07:33N 49°29' E 000°06'1 1.4
2015-Jan-19 06:33N 49°28' E 000°07'2 1.9
2015-Jan-19 05:32N 49°27' E 000°10'0 0.0
2015-Jan-19 04:32N 49°27' E 000°10'0 0.0
2015-Jan-19 03:29N 49°27' E 000°10'0 0.0
2015-Jan-19 02:29N 49°27' E 000°10'0 0.0
2015-Jan-19 01:32N 49°27' E 000°10'0 0.0
2015-Jan-19 00:32N 49°27' E 000°10'0 0.0
2015-Jan-18 23:32N 49°27' E 000°10'0 0.0
2015-Jan-18 22:32N 49°27' E 000°10'0 0.0
2015-Jan-18 21:32N 49°27' E 000°10'0 0.0
2015-Jan-18 20:32N 49°27' E 000°10'0 0.0
2015-Jan-18 19:17N 49°27' E 000°10'0 0.0
2015-Jan-18 18:29N 49°27' E 000°10'0 0.0
2015-Jan-18 17:29N 49°27' E 000°10'0 0.0
2015-Jan-18 16:32N 49°27' E 000°10'0 0.0
2015-Jan-18 15:32N 49°27' E 000°10'0 0.0
2015-Jan-18 14:32N 49°27' E 000°10'0 0.0
2015-Jan-18 13:32N 49°27' E 000°10'0 0.0
2015-Jan-18 12:32N 49°27' E 000°10'0 0.0
2015-Jan-18 11:32N 49°27' E 000°10'0 0.0
2015-Jan-18 10:32N 49°27' E 000°10'0 0.0
2015-Jan-18 09:32N 49°27' E 000°10'0 0.0
2015-Jan-18 08:32N 49°27' E 000°10'0 0.0
2015-Jan-18 07:32N 49°27' E 000°10'0 0.0
2015-Jan-18 06:29N 49°27' E 000°10'0 0.0
2015-Jan-18 05:32N 49°27' E 000°10'0 0.0
2015-Jan-18 04:32N 49°27' E 000°10'4 3.9
2015-Jan-18 03:34N 49°29' E 000°05'9 9.4
2015-Jan-18 02:33N 49°32' W 000°09'7 6.8
2015-Jan-18 01:33N 49°34' W 000°19'8 7.7
2015-Jan-18 00:33N 49°37' W 000°30'9 9.0
2015-Jan-17 23:31N 49°41' W 000°43'18410.8
2015-Jan-17 06:33N 48°54' W 005°16'  
Track history (hours):
 
Tides and Currents Weather Stations Pressure Air Temp Water Temp Dewpoint Dewpoint Depression Visibility Wind Speed Wind Dir Waves Ship Positions

CMA CGM Columba

Last reported at 2015-Jan-26 19:34 UTC. Time now 2015-Jan-26 20:29 UTC.
Position N 51°24' E 002°45'.

Length 363 m; draft 13.9 m.

Type: Ship (hazmat cat A). MMSI: 235077448.

Date/timePositionNaut miles runAvg speedWind from/ knotsBaromVisibWave heightAir tempDewpointWater temp
2015-Jan-26 19:34N 51°24' E 002°45'1212.4
2015-Jan-26 18:34N 51°24' E 003°05'6 5.9
2015-Jan-26 17:34N 51°21' E 003°12'0 0.4
2015-Jan-26 16:33N 51°20' E 003°12'0 0.0
2015-Jan-26 15:33N 51°20' E 003°12'0 0.0
2015-Jan-26 14:33N 51°20' E 003°12'0 0.0
2015-Jan-26 13:33N 51°20' E 003°12'0 0.0
2015-Jan-26 12:33N 51°20' E 003°12'0 0.0
2015-Jan-26 11:33N 51°20' E 003°12'0 0.0
2015-Jan-26 10:33N 51°20' E 003°12'0 0.0
2015-Jan-26 09:30N 51°20' E 003°12'0 0.0
2015-Jan-26 08:33N 51°20' E 003°12'0 0.0
2015-Jan-26 07:33N 51°20' E 003°12'0 0.0
2015-Jan-26 06:27N 51°20' E 003°12'0 0.0
2015-Jan-26 05:33N 51°20' E 003°12'0 0.0
2015-Jan-26 04:33N 51°20' E 003°12'0 0.0
2015-Jan-26 03:30N 51°20' E 003°12'0 0.0
2015-Jan-26 02:33N 51°20' E 003°12'0 0.0
2015-Jan-26 01:33N 51°20' E 003°12'0 0.0
2015-Jan-26 00:33N 51°20' E 003°12'0 0.0
2015-Jan-25 23:33N 51°20' E 003°12'0 0.4
2015-Jan-25 22:33N 51°21' E 003°12'8 7.3
2015-Jan-25 21:31N 51°25' E 003°02'1111.9
2015-Jan-25 20:33N 51°35' E 003°11'1818.3
2015-Jan-25 19:33N 51°52' E 003°19'1514.8
2015-Jan-25 18:34N 52°03' E 003°35'1212.4
2015-Jan-25 17:33N 52°03' E 003°56'8 7.9
2015-Jan-25 16:33N 51°57' E 004°05'1 0.6
2015-Jan-25 15:31N 51°57' E 004°04'0 0.0
2015-Jan-25 14:28N 51°57' E 004°04'0 0.0
2015-Jan-25 13:31N 51°57' E 004°04'0 0.0
2015-Jan-25 12:31N 51°57' E 004°04'0 0.0
2015-Jan-25 11:31N 51°57' E 004°04'0 0.0
2015-Jan-25 10:31N 51°57' E 004°04'0 0.0
2015-Jan-25 09:31N 51°57' E 004°04'0 0.0
2015-Jan-25 08:31N 51°57' E 004°04'0 0.0
2015-Jan-25 07:31N 51°57' E 004°04'0 0.0
2015-Jan-25 06:31N 51°57' E 004°04'0 0.0
2015-Jan-25 05:31N 51°57' E 004°04'0 0.0
2015-Jan-25 04:31N 51°57' E 004°04'0 0.0
2015-Jan-25 03:28N 51°57' E 004°04'0 0.0
2015-Jan-25 02:31N 51°57' E 004°04'0 0.0
2015-Jan-25 01:31N 51°57' E 004°04'0 0.0
2015-Jan-25 00:31N 51°57' E 004°04'0 0.0
2015-Jan-24 23:31N 51°57' E 004°04'0 0.0
2015-Jan-24 22:31N 51°57' E 004°04'0 0.2
2015-Jan-24 21:33N 51°57' E 004°04'3 3.0
2015-Jan-24 20:33N 51°60' E 004°02'8 7.8
2015-Jan-24 19:33N 51°60' E 003°49'8 8.2
2015-Jan-24 18:33N 52°08' E 003°46'1515.1
2015-Jan-24 17:33N 52°23' E 003°49'1615.9
2015-Jan-24 16:33N 52°39' E 003°53'1717.0
2015-Jan-24 15:33N 52°55' E 003°59'1918.7
2015-Jan-24 14:33N 53°09' E 004°21'2120.9
2015-Jan-24 13:33N 53°27' E 004°37'2020.2
2015-Jan-24 12:33N 53°36' E 005°08'2019.6
2015-Jan-24 11:33N 53°42' E 005°39'1919.1
2015-Jan-24 10:32N 53°48' E 006°11'1818.6
2015-Jan-24 09:33N 53°52' E 006°41'2620.0
2015-Jan-24 08:16N 53°58' E 007°23'913.3
2015-Jan-24 07:34N 53°60' E 007°39'1514.7
2015-Jan-24 06:33N 53°51' E 007°60'1818.0
2015-Jan-24 05:33N 53°40' E 008°23'8 7.2
2015-Jan-24 04:31N 53°35' E 008°32'0 0.0
2015-Jan-24 03:31N 53°35' E 008°32'0 0.0
2015-Jan-24 02:31N 53°35' E 008°32'0 0.0
2015-Jan-24 01:31N 53°35' E 008°32'0 0.0
2015-Jan-24 00:31N 53°35' E 008°32'0 0.0
2015-Jan-23 23:31N 53°35' E 008°32'0 0.0
2015-Jan-23 22:31N 53°35' E 008°32'0 0.0
2015-Jan-23 21:28N 53°35' E 008°32'0 0.0
2015-Jan-23 20:31N 53°35' E 008°32'0 0.0
2015-Jan-23 19:31N 53°35' E 008°32'0 0.0
2015-Jan-23 18:31N 53°35' E 008°32'0 0.0
2015-Jan-23 17:31N 53°35' E 008°32'0 0.0
2015-Jan-23 16:31N 53°35' E 008°32'0 0.0
2015-Jan-23 15:31N 53°35' E 008°32'0 0.0
2015-Jan-23 14:31N 53°35' E 008°32'0 0.0
2015-Jan-23 13:31N 53°35' E 008°32'0 0.0
2015-Jan-23 12:31N 53°35' E 008°32'0 0.0
2015-Jan-23 11:31N 53°35' E 008°32'0 0.0
2015-Jan-23 10:31N 53°35' E 008°32'0 0.0
2015-Jan-23 09:31N 53°35' E 008°32'0 0.0
2015-Jan-23 08:31N 53°35' E 008°32'0 0.0
2015-Jan-23 07:31N 53°35' E 008°32'0 0.0
2015-Jan-23 06:31N 53°35' E 008°32'0 0.0
2015-Jan-23 05:31N 53°35' E 008°32'0 0.0
2015-Jan-23 04:31N 53°35' E 008°32'0 0.0
2015-Jan-23 03:31N 53°35' E 008°32'0 0.0
2015-Jan-23 02:31N 53°35' E 008°32'0 0.0
2015-Jan-23 01:31N 53°35' E 008°32'0 0.0
2015-Jan-23 00:31N 53°35' E 008°32'0 0.0
2015-Jan-22 23:31N 53°35' E 008°32'0 0.0
2015-Jan-22 22:31N 53°35' E 008°32'0 0.0
2015-Jan-22 21:31N 53°35' E 008°32'0 0.0
2015-Jan-22 20:31N 53°35' E 008°32'0 0.0
2015-Jan-22 19:31N 53°35' E 008°32'0 0.0
2015-Jan-22 18:28N 53°35' E 008°32'0 0.0
2015-Jan-22 17:31N 53°35' E 008°32'0 0.0
2015-Jan-22 16:31N 53°35' E 008°32'0 0.0
2015-Jan-22 15:31N 53°35' E 008°32'1 0.6
2015-Jan-22 14:33N 53°35' E 008°31'1312.8
2015-Jan-22 13:33N 53°44' E 008°15'1515.1
2015-Jan-22 12:33N 53°52' E 007°54'9 8.9
2015-Jan-22 11:33N 54°01' E 007°56'6 6.3
2015-Jan-22 10:33N 54°03' E 008°05'1 1.1
2015-Jan-22 09:33N 54°04' E 008°04'1 1.2
2015-Jan-22 08:33N 54°03' E 008°05'1212.2
2015-Jan-22 07:33N 53°59' E 008°24'1514.8
2015-Jan-22 06:33N 53°51' E 008°46'1615.5
2015-Jan-22 05:33N 53°53' E 009°12'1615.8
2015-Jan-22 04:33N 53°41' E 009°30'1111.5
2015-Jan-22 03:33N 53°34' E 009°45'6 6.3
2015-Jan-22 02:33N 53°32' E 009°55'0 0.0
2015-Jan-22 01:33N 53°32' E 009°55'0 0.0
2015-Jan-22 00:33N 53°32' E 009°55'0 0.0
2015-Jan-21 23:33N 53°32' E 009°55'0 0.0
2015-Jan-21 22:48N 53°32' E 009°55'0 0.0
2015-Jan-21 22:45N 53°32' E 009°55'0 0.0
2015-Jan-21 22:33N 53°32' E 009°55'0 0.0
2015-Jan-21 21:33N 53°32' E 009°55'0 0.0
2015-Jan-21 20:33N 53°32' E 009°55'0 0.0
2015-Jan-21 19:33N 53°32' E 009°55'0 0.0
2015-Jan-21 18:33N 53°32' E 009°55'0 0.0
2015-Jan-21 17:27N 53°32' E 009°55'0 0.0
2015-Jan-21 16:33N 53°32' E 009°55'0 0.0
2015-Jan-21 15:30N 53°32' E 009°55'0 0.0
2015-Jan-21 14:33N 53°32' E 009°55'0 0.0
2015-Jan-21 13:33N 53°32' E 009°55'0 0.0
2015-Jan-21 12:33N 53°32' E 009°55'0 0.0
2015-Jan-21 11:30N 53°32' E 009°55'0 0.0
2015-Jan-21 10:31N 53°32' E 009°55'0 0.0
2015-Jan-21 09:28N 53°32' E 009°55'0 0.0
2015-Jan-21 08:31N 53°32' E 009°55'0 0.0
2015-Jan-21 07:31N 53°32' E 009°55'0 0.0
2015-Jan-21 06:28N 53°32' E 009°55'0 0.0
2015-Jan-21 05:31N 53°32' E 009°55'0 0.0
2015-Jan-21 04:31N 53°32' E 009°55'0 0.0
2015-Jan-21 03:28N 53°32' E 009°55'0 0.0
2015-Jan-21 02:31N 53°32' E 009°55'0 0.0
2015-Jan-21 01:31N 53°32' E 009°55'0 0.0
2015-Jan-21 00:31N 53°32' E 009°55'0 0.0
2015-Jan-20 23:28N 53°32' E 009°55'0 0.0
2015-Jan-20 22:31N 53°32' E 009°55'0 0.0
2015-Jan-20 21:31N 53°32' E 009°55'0 0.0
2015-Jan-20 20:28N 53°32' E 009°55'0 0.0
2015-Jan-20 19:31N 53°32' E 009°55'0 0.0
2015-Jan-20 18:31N 53°32' E 009°55'0 0.0
2015-Jan-20 17:33N 53°32' E 009°55'2 2.3
2015-Jan-20 16:33N 53°33' E 009°51'10 9.6
2015-Jan-20 15:33N 53°36' E 009°36'1212.3
2015-Jan-20 14:33N 53°46' E 009°24'1312.6
2015-Jan-20 13:33N 53°53' E 009°06'1414.0
2015-Jan-20 12:34N 53°53' E 008°42'1817.6
2015-Jan-20 11:33N 53°60' E 008°15'1514.6
2015-Jan-20 10:33N 53°57' E 007°50'1312.1
2015-Jan-20 09:27N 53°54' E 007°28'1313.8
2015-Jan-20 08:29N 53°52' E 007°06'2019.8
2015-Jan-20 07:29N 53°47' E 006°33'2123.0
2015-Jan-20 06:34N 53°41' E 005°58'2524.5
2015-Jan-20 05:33N 53°34' E 005°19'2424.4
2015-Jan-20 04:33N 53°23' E 004°42'2725.0
2015-Jan-20 03:29N 52°60' E 004°21'2224.2
2015-Jan-20 02:33N 52°41' E 004°01'2924.6
2015-Jan-20 01:22N 52°20' E 003°27'5024.8
2015-Jan-19 23:21N 51°43' E 002°32'2024.6
2015-Jan-19 22:34N 51°28' E 002°11'2423.9
2015-Jan-19 21:34N 51°11' E 001°46'2423.6
2015-Jan-19 20:34N 50°51' E 001°26'3422.9
2015-Jan-19 19:04N 50°27' E 000°48'1424.7
2015-Jan-19 18:32N 50°22' E 000°28'4120.6
2015-Jan-19 16:33N 49°49' W 000°09'1717.2
2015-Jan-19 15:34N 49°32' W 000°06'1110.5
2015-Jan-19 14:33N 49°28' E 000°09'1 0.6
2015-Jan-19 13:31N 49°28' E 000°10'0 0.0
2015-Jan-19 12:28N 49°28' E 000°10'0 0.0
2015-Jan-19 11:31N 49°28' E 000°10'0 0.0
2015-Jan-19 10:31N 49°28' E 000°10'0 0.0
2015-Jan-19 09:31N 49°28' E 000°10'0 0.0
2015-Jan-19 08:31N 49°28' E 000°10'3 2.9
2015-Jan-19 07:33N 49°29' E 000°06'1 1.4
2015-Jan-19 06:33N 49°28' E 000°07'2 1.9
2015-Jan-19 05:32N 49°27' E 000°10'0 0.0
2015-Jan-19 04:32N 49°27' E 000°10'0 0.0
2015-Jan-19 03:29N 49°27' E 000°10'0 0.0
2015-Jan-19 02:29N 49°27' E 000°10'0 0.0
2015-Jan-19 01:32N 49°27' E 000°10'0 0.0
2015-Jan-19 00:32N 49°27' E 000°10'0 0.0
2015-Jan-18 23:32N 49°27' E 000°10'0 0.0
2015-Jan-18 22:32N 49°27' E 000°10'0 0.0
2015-Jan-18 21:32N 49°27' E 000°10'0 0.0
2015-Jan-18 20:32N 49°27' E 000°10'0 0.0
2015-Jan-18 19:17N 49°27' E 000°10'0 0.0
2015-Jan-18 18:29N 49°27' E 000°10'0 0.0
2015-Jan-18 17:29N 49°27' E 000°10'0 0.0
2015-Jan-18 16:32N 49°27' E 000°10'0 0.0
2015-Jan-18 15:32N 49°27' E 000°10'0 0.0
2015-Jan-18 14:32N 49°27' E 000°10'0 0.0
2015-Jan-18 13:32N 49°27' E 000°10'0 0.0
2015-Jan-18 12:32N 49°27' E 000°10'0 0.0
2015-Jan-18 11:32N 49°27' E 000°10'0 0.0
2015-Jan-18 10:32N 49°27' E 000°10'0 0.0
2015-Jan-18 09:32N 49°27' E 000°10'0 0.0
2015-Jan-18 08:32N 49°27' E 000°10'0 0.0
2015-Jan-18 07:32N 49°27' E 000°10'0 0.0
2015-Jan-18 06:29N 49°27' E 000°10'0 0.0
2015-Jan-18 05:32N 49°27' E 000°10'0 0.0
2015-Jan-18 04:32N 49°27' E 000°10'4 3.9
2015-Jan-18 03:34N 49°29' E 000°05'9 9.4
2015-Jan-18 02:33N 49°32' W 000°09'7 6.8
2015-Jan-18 01:33N 49°34' W 000°19'8 7.7
2015-Jan-18 00:33N 49°37' W 000°30'9 9.0
2015-Jan-17 23:31N 49°41' W 000°43'18410.8
2015-Jan-17 06:33N 48°54' W 005°16'  

Dump ship's entire track history